地図

経路データ

SID SEASON NUMBER BASIN SUBBASIN NAME ISO_TIME NATURE LAT LON WMO_WIND WMO_PRES WMO_AGENCY TRACK_TYPE DIST2LAND LANDFALL IFLAG USA_AGENCY USA_ATCF_ID USA_LAT USA_LON USA_RECORD USA_STATUS USA_WIND USA_PRES USA_SSHS USA_R34_NE USA_R34_SE USA_R34_SW USA_R34_NW USA_R50_NE USA_R50_SE USA_R50_SW USA_R50_NW USA_R64_NE USA_R64_SE USA_R64_SW USA_R64_NW USA_POCI USA_ROCI USA_RMW USA_EYE TOKYO_LAT TOKYO_LON TOKYO_GRADE TOKYO_WIND TOKYO_PRES TOKYO_R50_DIR TOKYO_R50_LONG TOKYO_R50_SHORT TOKYO_R30_DIR TOKYO_R30_LONG TOKYO_R30_SHORT TOKYO_LAND CMA_LAT CMA_LON CMA_CAT CMA_WIND CMA_PRES HKO_LAT HKO_LON HKO_CAT HKO_WIND HKO_PRES NEWDELHI_LAT NEWDELHI_LON NEWDELHI_GRADE NEWDELHI_WIND NEWDELHI_PRES NEWDELHI_CI NEWDELHI_DP NEWDELHI_POCI REUNION_LAT REUNION_LON REUNION_TYPE REUNION_WIND REUNION_PRES REUNION_TNUM REUNION_CI REUNION_RMW REUNION_R34_NE REUNION_R34_SE REUNION_R34_SW REUNION_R34_NW REUNION_R50_NE REUNION_R50_SE REUNION_R50_SW REUNION_R50_NW REUNION_R64_NE REUNION_R64_SE REUNION_R64_SW REUNION_R64_NW BOM_LAT BOM_LON BOM_TYPE BOM_WIND BOM_PRES BOM_TNUM BOM_CI BOM_RMW BOM_R34_NE BOM_R34_SE BOM_R34_SW BOM_R34_NW BOM_R50_NE BOM_R50_SE BOM_R50_SW BOM_R50_NW BOM_R64_NE BOM_R64_SE BOM_R64_SW BOM_R64_NW BOM_ROCI BOM_POCI BOM_EYE BOM_POS_METHOD BOM_PRES_METHOD NADI_LAT NADI_LON NADI_CAT NADI_WIND NADI_PRES WELLINGTON_LAT WELLINGTON_LON WELLINGTON_WIND WELLINGTON_PRES DS824_LAT DS824_LON DS824_STAGE DS824_WIND DS824_PRES TD9636_LAT TD9636_LON TD9636_STAGE TD9636_WIND TD9636_PRES TD9635_LAT TD9635_LON TD9635_WIND TD9635_PRES TD9635_ROCI NEUMANN_LAT NEUMANN_LON NEUMANN_CLASS NEUMANN_WIND NEUMANN_PRES MLC_LAT MLC_LON MLC_CLASS MLC_WIND MLC_PRES USA_GUST BOM_GUST BOM_GUST_PER REUNION_GUST REUNION_GUST_PER USA_SEAHGT USA_SEARAD_NE USA_SEARAD_SE USA_SEARAD_SW USA_SEARAD_NW STORM_SPEED STORM_DIR
1996172N13261 1996 44 EP MM ALMA 1996-06-20 00:00:00 TS 13.1000 -98.7000 30 1009 hurdat_epa main 338 324 O_____________ hurdat_epa EP031996 13.1000 -98.7000 TD 30 1009 -1 7 305
1996172N13261 1996 44 EP MM ALMA 1996-06-20 03:00:00 TS 13.3025 -98.9949 main 328 317 P_____________ EP031996 13.3025 -98.9949 TD 30 1009 -1 7 304
1996172N13261 1996 44 EP MM ALMA 1996-06-20 06:00:00 TS 13.5000 -99.3000 30 1009 hurdat_epa main 322 310 O_____________ hurdat_epa EP031996 13.5000 -99.3000 TD 30 1009 -1 7 303
1996172N13261 1996 44 EP MM ALMA 1996-06-20 09:00:00 TS 13.6925 -99.6150 main 310 297 P_____________ EP031996 13.6925 -99.6150 TD 30 1008 -1 7 304
1996172N13261 1996 44 EP MM ALMA 1996-06-20 12:00:00 TS 13.9000 -99.9000 30 1007 hurdat_epa main 302 288 O_____________ hurdat_epa EP031996 13.9000 -99.9000 TD 30 1007 -1 7 313
1996172N13261 1996 44 EP MM ALMA 1996-06-20 15:00:00 TS 14.1424 -100.115 main 294 265 P_____________ EP031996 14.1424 -100.115 TD 32 1006 -1 6 322
1996172N13261 1996 44 EP MM ALMA 1996-06-20 18:00:00 TS 14.4000 -100.300 35 1005 hurdat_epa main 265 246 O_____________ hurdat_epa EP031996 14.4000 -100.300 TS 35 1005 0 6 324
1996172N13261 1996 44 EP MM ALMA 1996-06-20 21:00:00 TS 14.6500 -100.500 main 250 228 P_____________ EP031996 14.6500 -100.500 TS 37 1003 0 6 322
1996172N13261 1996 44 EP MM ALMA 1996-06-21 00:00:00 TS 14.9000 -100.700 40 1002 hurdat_epa main 228 211 O_____________ hurdat_epa EP031996 14.9000 -100.700 TS 40 1002 0 6 323
1996172N13261 1996 44 EP MM ALMA 1996-06-21 03:00:00 TS 15.1650 -100.900 main 211 200 P_____________ EP031996 15.1650 -100.900 TS 42 1001 0 6 322
1996172N13261 1996 44 EP MM ALMA 1996-06-21 06:00:00 TS 15.4000 -101.100 45 1000 hurdat_epa main 200 186 O_____________ hurdat_epa EP031996 15.4000 -101.100 TS 45 1000 0 6 318
1996172N13261 1996 44 EP MM ALMA 1996-06-21 09:00:00 TS 15.5800 -101.293 main 186 179 P_____________ EP031996 15.5800 -101.293 TS 47 998 0 5 308
1996172N13261 1996 44 EP MM ALMA 1996-06-21 12:00:00 TS 15.7000 -101.500 50 997 hurdat_epa main 183 179 O_____________ hurdat_epa EP031996 15.7000 -101.500 TS 50 997 0 5 294
1996172N13261 1996 44 EP MM ALMA 1996-06-21 15:00:00 TS 15.7725 -101.750 main 183 183 P_____________ EP031996 15.7725 -101.750 TS 52 995 0 5 282
1996172N13261 1996 44 EP MM ALMA 1996-06-21 18:00:00 TS 15.8000 -102.000 55 994 hurdat_epa main 193 193 O_____________ hurdat_epa EP031996 15.8000 -102.000 TS 55 994 0 4 274
1996172N13261 1996 44 EP MM ALMA 1996-06-21 21:00:00 TS 15.8000 -102.215 main 204 204 P_____________ EP031996 15.8000 -102.215 TS 60 990 0 4 270
1996172N13261 1996 44 EP MM ALMA 1996-06-22 00:00:00 TS 15.8000 -102.400 65 987 hurdat_epa main 217 217 O_____________ hurdat_epa EP031996 15.8000 -102.400 HU 65 987 1 4 274
1996172N13261 1996 44 EP MM ALMA 1996-06-22 03:00:00 TS 15.8275 -102.587 main 231 227 P_____________ EP031996 15.8275 -102.587 HU 70 986 1 3 289
1996172N13261 1996 44 EP MM ALMA 1996-06-22 06:00:00 TS 15.9000 -102.700 75 985 hurdat_epa main 227 216 O_____________ hurdat_epa EP031996 15.9000 -102.700 HU 75 985 1 2 337
1996172N13261 1996 44 EP MM ALMA 1996-06-22 09:00:00 TS 16.0275 -102.673 main 216 192 P_____________ EP031996 16.0275 -102.673 HU 80 981 1 3 17
1996172N13261 1996 44 EP MM ALMA 1996-06-22 12:00:00 TS 16.2000 -102.600 85 978 hurdat_epa main 192 170 O_____________ hurdat_epa EP031996 16.2000 -102.600 HU 85 978 2 4 13
1996172N13261 1996 44 EP MM ALMA 1996-06-22 15:00:00 TS 16.4150 -102.578 main 170 148 P_____________ EP031996 16.4150 -102.578 HU 85 976 2 4 0
1996172N13261 1996 44 EP MM ALMA 1996-06-22 18:00:00 TS 16.6000 -102.600 85 975 hurdat_epa main 148 140 O_____________ hurdat_epa EP031996 16.6000 -102.600 HU 85 975 2 3 336
1996172N13261 1996 44 EP MM ALMA 1996-06-22 21:00:00 TS 16.6650 -102.693 main 140 140 P_____________ EP031996 16.6650 -102.693 HU 85 973 2 2 298
1996172N13261 1996 44 EP MM ALMA 1996-06-23 00:00:00 TS 16.7000 -102.800 85 972 hurdat_epa main 144 138 O_____________ hurdat_epa EP031996 16.7000 -102.800 HU 85 972 2 2 305
1996172N13261 1996 44 EP MM ALMA 1996-06-23 03:00:00 TS 16.7850 -102.872 main 138 127 P_____________ EP031996 16.7850 -102.872 HU 85 971 2 2 333
1996172N13261 1996 44 EP MM ALMA 1996-06-23 06:00:00 TS 16.9000 -102.900 85 970 hurdat_epa main 127 116 O_____________ hurdat_epa EP031996 16.9000 -102.900 HU 85 970 2 3 0
1996172N13261 1996 44 EP MM ALMA 1996-06-23 09:00:00 TS 17.0425 -102.873 main 116 91 P_____________ EP031996 17.0425 -102.873 HU 87 969 2 3 17
1996172N13261 1996 44 EP MM ALMA 1996-06-23 12:00:00 TS 17.2000 -102.800 90 969 hurdat_epa main 91 79 O_____________ hurdat_epa EP031996 17.2000 -102.800 HU 90 969 2 3 29
1996172N13261 1996 44 EP MM ALMA 1996-06-23 15:00:00 TS 17.3350 -102.707 main 79 54 P_____________ EP031996 17.3350 -102.707 HU 90 969 2 4 32
1996172N13261 1996 44 EP MM ALMA 1996-06-23 18:00:00 TS 17.5000 -102.600 90 970 hurdat_epa main 54 22 O_____________ hurdat_epa EP031996 17.5000 -102.600 HU 90 970 2 5 27
1996172N13261 1996 44 EP MM ALMA 1996-06-23 21:00:00 TS 17.7875 -102.470 main 22 0 P_____________ EP031996 17.7875 -102.470 HU 90 971 2 5 21
1996172N13261 1996 44 EP MM ALMA 1996-06-24 00:00:00 TS 18.0000 -102.400 90 973 hurdat_epa main 0 0 O_____________ hurdat_epa EP031996 18.0000 -102.400 L HU 90 973 2 2 6
1996172N13261 1996 44 EP MM ALMA 1996-06-24 03:00:00 TS 17.9450 -102.470 main 11 11 P_____________ EP031996 17.9450 -102.470 HU 85 974 2 3 224
1996172N13261 1996 44 EP MM ALMA 1996-06-24 06:00:00 TS 17.8000 -102.600 80 975 hurdat_epa main 22 22 O_____________ hurdat_epa EP031996 17.8000 -102.600 HU 80 975 1 3 228
1996172N13261 1996 44 EP MM ALMA 1996-06-24 09:00:00 TS 17.7350 -102.715 main 35 35 P_____________ EP031996 17.7350 -102.715 HU 72 977 1 2 242
1996172N13261 1996 44 EP MM ALMA 1996-06-24 12:00:00 TS 17.7000 -102.800 65 979 hurdat_epa main 39 39 O_____________ hurdat_epa EP031996 17.7000 -102.800 HU 65 979 1 1 252
1996172N13261 1996 44 EP MM ALMA 1996-06-24 15:00:00 TS 17.7000 -102.823 main 39 39 P_____________ EP031996 17.7000 -102.823 HU 62 982 0 0 0
1996172N13261 1996 44 EP MM ALMA 1996-06-24 18:00:00 TS 17.7000 -102.800 60 985 hurdat_epa main 39 39 O_____________ hurdat_epa EP031996 17.7000 -102.800 TS 60 985 0 1 139
1996172N13261 1996 44 EP MM ALMA 1996-06-24 21:00:00 TS 17.6575 -102.773 main 39 39 P_____________ EP031996 17.6575 -102.773 TS 57 990 0 1 137
1996172N13261 1996 44 EP MM ALMA 1996-06-25 00:00:00 TS 17.6000 -102.700 55 995 hurdat_epa main 45 39 O_____________ hurdat_epa EP031996 17.6000 -102.700 TS 55 995 0 2 114
1996172N13261 1996 44 EP MM ALMA 1996-06-25 03:00:00 TS 17.5576 -102.535 main 39 39 P_____________ EP031996 17.5576 -102.535 TS 50 997 0 3 109
1996172N13261 1996 44 EP MM ALMA 1996-06-25 06:00:00 TS 17.5000 -102.400 45 1000 hurdat_epa main 45 45 O_____________ hurdat_epa EP031996 17.5000 -102.400 TS 45 1000 0 2 145
1996172N13261 1996 44 EP MM ALMA 1996-06-25 09:00:00 TS 17.3925 -102.413 main 56 56 P_____________ EP031996 17.3925 -102.413 TS 40 1002 0 2 207
1996172N13261 1996 44 EP MM ALMA 1996-06-25 12:00:00 TS 17.3000 -102.500 35 1005 hurdat_epa main 70 70 O_____________ hurdat_epa EP031996 17.3000 -102.500 TS 35 1005 0 2 236
1996172N13261 1996 44 EP MM ALMA 1996-06-25 15:00:00 TS 17.2775 -102.592 main 74 74 P_____________ EP031996 17.2775 -102.592 TS 32 1007 -1 2 270
1996172N13261 1996 44 EP MM ALMA 1996-06-25 18:00:00 TS 17.3000 -102.700 30 1009 hurdat_epa main 79 79 O_____________ hurdat_epa EP031996 17.3000 -102.700 TD 30 1009 -1 2 291
1996172N13261 1996 44 EP MM ALMA 1996-06-25 21:00:00 TS 17.3424 -102.770 main 81 70 P_____________ EP031996 17.3424 -102.770 TD 30 1009 -1 2 298
1996172N13261 1996 44 EP MM ALMA 1996-06-26 00:00:00 TS 17.4000 -102.900 30 1009 hurdat_epa main 74 74 O_____________ hurdat_epa EP031996 17.4000 -102.900 TD 30 1009 -1 4 284
1996172N13261 1996 44 EP MM ALMA 1996-06-26 03:00:00 TS 17.4426 -103.178 main 84 74 P_____________ EP031996 17.4426 -103.178 TD 30 1009 -1 6 280
1996172N13261 1996 44 EP MM ALMA 1996-06-26 06:00:00 TS 17.5000 -103.500 30 1009 hurdat_epa main 84 81 O_____________ hurdat_epa EP031996 17.5000 -103.500 TD 30 1009 -1 6 284
1996172N13261 1996 44 EP MM ALMA 1996-06-26 09:00:00 TS 17.5849 -103.758 main 84 79 P_____________ EP031996 17.5849 -103.758 TD 30 1009 -1 5 293
1996172N13261 1996 44 EP MM ALMA 1996-06-26 12:00:00 TS 17.7000 -104.000 30 1009 hurdat_epa main 85 84 O_____________ hurdat_epa EP031996 17.7000 -104.000 TD 30 1009 -1 5 298
1996172N13261 1996 44 EP MM ALMA 1996-06-26 15:00:00 TS 17.8350 -104.250 main 101 95 P_____________ EP031996 17.8350 -104.250 TD 30 1009 -1 6 302
1996172N13261 1996 44 EP MM ALMA 1996-06-26 18:00:00 TS 18.0000 -104.500 30 1009 hurdat_epa main 110 98 O_____________ hurdat_epa EP031996 18.0000 -104.500 TD 30 1009 -1 6 308
1996172N13261 1996 44 EP MM ALMA 1996-06-26 21:00:00 TS 18.2000 -104.750 main 98 90 P_____________ EP031996 18.2000 -104.750 TD 27 1009 -1 6 310
1996172N13261 1996 44 EP MM ALMA 1996-06-27 00:00:00 TS 18.4000 -105.000 25 1009 hurdat_epa main 91 79 O_____________ hurdat_epa EP031996 18.4000 -105.000 TD 25 1009 -1 6 308
1996172N13261 1996 44 EP MM ALMA 1996-06-27 03:00:00 TS 18.5637 -105.243 main 79 79 P_____________ EP031996 18.5649 -105.235 TD 25 1009 -1 6 302
1996172N13261 1996 44 EP MM ALMA 1996-06-27 06:00:00 TS 18.7000 -105.500 25 1009 hurdat_epa main 92 92 O_____________ hurdat_epa EP031996 18.7000 -105.500 TD 25 1009 -1 6 294
1996172N13261 1996 44 EP MM ALMA 1996-06-27 09:00:00 NR 18.8077 -105.830 main 107 107 P_____________ EP031996 18.8077 -105.830 TD 22 -1 7 287
1996172N13261 1996 44 EP MM ALMA 1996-06-27 12:00:00 NR 18.9000 -106.200 main 130 O_____________ jtwc_ep EP031996 18.9000 -106.200 20 7 285

IBTrACS Databaseについて

本データベースは、米国NOAAが公開する1842年以降の世界の熱帯低気圧のベストトラックデータアーカイブInternational Best Track Archive for Climate Stewardship (IBTrACS)を、ウェブで閲覧しやすい形式に変換したものです。

最終更新日:2021-10-08